Time;durP1;ratioP1;P1;durP2;ratioP2;P2;SDS_P1;SDS_P2;PMS_P1;PMS_P2;Temp;Humidity;BMP_temperature;BMP_pressure;BME280_temperature;BME280_humidity;BME280_pressure;Samples;Min_cycle;Max_cycle;Signal;HPM_P1;HPM_P2
2023/06/19 00:01:28;;;;;;;6.20;5.28;;;;;;;;;;5075271;28;20097;-66
2023/06/19 00:03:53;;;;;;;6.57;4.47;;;;;;;;;;5075268;28;20063;-66
2023/06/19 00:06:19;;;;;;;7.07;5.05;;;;;;;;;;5081563;28;20063;-66
2023/06/19 00:08:44;;;;;;;6.47;5.22;;;;;;;;;;5075027;28;20040;-66
2023/06/19 00:11:09;;;;;;;6.72;5.10;;;;;;;;;;5062189;28;20041;-66
2023/06/19 00:13:35;;;;;;;6.32;5.05;;;;;;;;;;5073495;28;20492;-66
2023/06/19 00:16:01;;;;;;;4.85;4.25;;;;;;;;;;5074776;28;20564;-65
2023/06/19 00:18:27;;;;;;;5.72;4.35;;;;;;;;;;5079143;28;20054;-67
2023/06/19 00:20:54;;;;;;;5.80;4.63;;;;;;;;;;5074216;28;20135;-67
2023/06/19 00:23:19;;;;;;;4.90;3.60;;;;;;;;;;5063241;28;20052;-67
2023/06/19 00:25:45;;;;;;;6.22;4.38;;;;;;;;;;5074230;28;20485;-67
2023/06/19 00:28:13;;;;;;;6.93;4.97;;;;;;;;;;5073029;28;20539;-68
2023/06/19 00:30:39;;;;;;;5.78;4.50;;;;;;;;;;5074563;28;20044;-67
2023/06/19 00:33:05;;;;;;;6.03;4.65;;;;;;;;;;5073828;28;20032;-67
2023/06/19 00:35:30;;;;;;;8.68;4.88;;;;;;;;;;5071951;28;20040;-67
2023/06/19 00:37:56;;;;;;;5.88;4.72;;;;;;;;;;5065353;28;20028;-67
2023/06/19 00:40:28;;;;;;;10.48;4.90;;;;;;;;;;5076215;28;20516;-66
2023/06/19 00:42:53;;;;;;;10.48;4.55;;;;;;;;;;5071521;28;20131;-66
2023/06/19 00:45:19;;;;;;;5.40;4.72;;;;;;;;;;5072254;28;20135;-66
2023/06/19 00:47:45;;;;;;;4.88;4.38;;;;;;;;;;5072335;28;20599;-66
2023/06/19 00:50:11;;;;;;;11.00;4.68;;;;;;;;;;5080647;28;20044;-66
2023/06/19 00:52:37;;;;;;;6.90;3.80;;;;;;;;;;5044755;28;20043;-66
2023/06/19 00:55:04;;;;;;;5.35;3.50;;;;;;;;;;5073222;28;20115;-66
2023/06/19 00:57:30;;;;;;;6.00;4.00;;;;;;;;;;5073826;28;20056;-66
2023/06/19 00:59:56;;;;;;;7.05;4.15;;;;;;;;;;5074961;28;20075;-66
2023/06/19 01:02:23;;;;;;;6.30;4.60;;;;;;;;;;5076250;28;20119;-66
2023/06/19 01:04:52;;;;;;;5.47;4.43;;;;;;;;;;5062449;28;20119;-67
2023/06/19 01:07:27;;;;;;;5.72;4.53;;;;;;;;;;5072468;28;20067;-66
2023/06/19 01:09:58;;;;;;;6.80;4.78;;;;;;;;;;5073812;28;21474;-66
2023/06/19 01:12:30;;;;;;;5.75;4.40;;;;;;;;;;5080138;28;20043;-66
2023/06/19 01:15:02;;;;;;;6.35;4.00;;;;;;;;;;5071254;28;20039;-67
2023/06/19 01:17:28;;;;;;;8.02;5.03;;;;;;;;;;5060889;28;20036;-67
2023/06/19 01:19:55;;;;;;;8.40;4.10;;;;;;;;;;5073384;28;20035;-66
2023/06/19 01:22:30;;;;;;;8.40;5.07;;;;;;;;;;5077472;28;20233;-66
2023/06/19 01:24:57;;;;;;;6.90;5.18;;;;;;;;;;5078307;28;20035;-67
2023/06/19 01:27:25;;;;;;;5.40;4.80;;;;;;;;;;5073289;28;20569;-66
2023/06/19 01:29:53;;;;;;;7.63;5.85;;;;;;;;;;5062716;28;20568;-67
2023/06/19 01:32:24;;;;;;;6.43;4.68;;;;;;;;;;5070922;28;20050;-67
2023/06/19 01:34:54;;;;;;;6.28;4.88;;;;;;;;;;5077050;28;20066;-66
2023/06/19 01:37:20;;;;;;;17.88;5.53;;;;;;;;;;5074380;28;20132;-66
2023/06/19 01:39:46;;;;;;;6.80;5.00;;;;;;;;;;5076117;28;20566;-67
2023/06/19 01:42:13;;;;;;;7.10;5.05;;;;;;;;;;5060842;28;20115;-66
2023/06/19 01:44:39;;;;;;;6.82;5.85;;;;;;;;;;5074085;28;20036;-66
2023/06/19 01:47:10;;;;;;;8.40;5.18;;;;;;;;;;5075420;28;20466;-66
2023/06/19 01:49:35;;;;;;;6.95;4.47;;;;;;;;;;5074319;28;20508;-66
2023/06/19 01:52:01;;;;;;;8.00;5.43;;;;;;;;;;5071527;28;20036;-66
2023/06/19 01:54:27;;;;;;;6.68;5.35;;;;;;;;;;5074597;28;20035;-66
2023/06/19 01:56:53;;;;;;;10.15;5.40;;;;;;;;;;5067173;28;20032;-66
2023/06/19 01:59:18;;;;;;;7.45;5.57;;;;;;;;;;5070672;28;20056;-65
2023/06/19 02:01:43;;;;;;;5.35;4.45;;;;;;;;;;5055690;28;20066;-66
2023/06/19 02:04:09;;;;;;;6.05;5.00;;;;;;;;;;5069444;28;20044;-66
2023/06/19 02:06:34;;;;;;;6.55;4.75;;;;;;;;;;5074859;28;20028;-66
2023/06/19 02:09:00;;;;;;;6.50;4.50;;;;;;;;;;5073173;28;20043;-66
2023/06/19 02:11:25;;;;;;;5.43;4.43;;;;;;;;;;5062225;28;20036;-66
2023/06/19 02:13:50;;;;;;;5.00;4.40;;;;;;;;;;5070925;28;20554;-66
2023/06/19 02:16:16;;;;;;;6.18;4.53;;;;;;;;;;5073647;28;20381;-66
2023/06/19 02:18:41;;;;;;;6.43;4.88;;;;;;;;;;5076628;28;20123;-66
2023/06/19 02:21:07;;;;;;;8.45;5.50;;;;;;;;;;5072062;28;20028;-66
2023/06/19 02:23:32;;;;;;;7.05;5.22;;;;;;;;;;5061436;28;21361;-65
2023/06/19 02:25:58;;;;;;;6.50;5.28;;;;;;;;;;5071437;28;20139;-66
2023/06/19 02:28:23;;;;;;;6.88;4.93;;;;;;;;;;5076489;28;20089;-66
2023/06/19 02:30:49;;;;;;;6.47;4.70;;;;;;;;;;5075524;28;20047;-66
2023/06/19 02:33:14;;;;;;;6.60;4.68;;;;;;;;;;5076521;28;20579;-66
2023/06/19 02:35:41;;;;;;;5.80;4.50;;;;;;;;;;5072468;28;20093;-66
2023/06/19 02:38:07;;;;;;;7.18;4.88;;;;;;;;;;5062099;28;20036;-67
2023/06/19 02:40:32;;;;;;;6.60;5.18;;;;;;;;;;5076423;28;20112;-66
2023/06/19 02:42:57;;;;;;;5.15;4.55;;;;;;;;;;5071471;28;20105;-66
2023/06/19 02:45:23;;;;;;;6.55;4.68;;;;;;;;;;5072213;28;20528;-66
2023/06/19 02:47:50;;;;;;;7.18;4.65;;;;;;;;;;5069496;28;20082;-65
2023/06/19 02:50:15;;;;;;;7.80;5.55;;;;;;;;;;5076112;28;20081;-66
2023/06/19 02:52:40;;;;;;;6.28;5.30;;;;;;;;;;5063387;28;20032;-66
2023/06/19 02:55:07;;;;;;;6.38;4.57;;;;;;;;;;5070062;28;20048;-66
2023/06/19 02:57:33;;;;;;;5.53;4.82;;;;;;;;;;5071892;28;20039;-66
2023/06/19 02:59:58;;;;;;;5.90;4.55;;;;;;;;;;5068767;28;20159;-66
2023/06/19 03:02:23;;;;;;;6.65;5.32;;;;;;;;;;5076327;28;20165;-66
2023/06/19 03:04:50;;;;;;;7.20;5.00;;;;;;;;;;5070818;28;20047;-66
2023/06/19 03:07:16;;;;;;;5.53;4.72;;;;;;;;;;5061077;28;20028;-66
2023/06/19 03:09:42;;;;;;;6.43;4.53;;;;;;;;;;5071931;28;20056;-66
2023/06/19 03:12:08;;;;;;;6.65;5.07;;;;;;;;;;5071527;28;20548;-65
2023/06/19 03:14:33;;;;;;;5.53;4.70;;;;;;;;;;5073207;28;20044;-65
2023/06/19 03:16:59;;;;;;;5.32;4.55;;;;;;;;;;5069743;28;20082;-65
2023/06/19 03:19:25;;;;;;;5.32;4.50;;;;;;;;;;5070237;28;20113;-65
2023/06/19 03:21:50;;;;;;;5.93;4.57;;;;;;;;;;5061593;28;20041;-65
2023/06/19 03:24:15;;;;;;;6.35;4.75;;;;;;;;;;5078690;28;20075;-65
2023/06/19 03:26:41;;;;;;;6.82;4.05;;;;;;;;;;5069093;28;20032;-65
2023/06/19 03:29:06;;;;;;;4.68;3.83;;;;;;;;;;5069386;28;20067;-65
2023/06/19 03:31:32;;;;;;;7.07;5.65;;;;;;;;;;5068506;28;20523;-65
2023/06/19 03:33:57;;;;;;;5.82;4.72;;;;;;;;;;5063074;28;20171;-65
2023/06/19 03:36:22;;;;;;;6.53;4.63;;;;;;;;;;5080052;28;20039;-65
2023/06/19 03:38:48;;;;;;;8.40;5.65;;;;;;;;;;5075104;28;20052;-65
2023/06/19 03:41:14;;;;;;;8.50;4.90;;;;;;;;;;5077983;28;20059;-65
2023/06/19 03:43:39;;;;;;;5.22;4.45;;;;;;;;;;5078834;28;20032;-65
2023/06/19 03:46:05;;;;;;;7.18;4.35;;;;;;;;;;5064457;28;20063;-65
2023/06/19 03:48:30;;;;;;;5.72;4.30;;;;;;;;;;5064161;28;20040;-65
2023/06/19 03:50:56;;;;;;;5.28;4.20;;;;;;;;;;5072970;28;20559;-65
2023/06/19 03:53:21;;;;;;;5.85;3.70;;;;;;;;;;5074662;28;20119;-65
2023/06/19 03:55:47;;;;;;;4.88;4.10;;;;;;;;;;5077499;28;20040;-65
2023/06/19 03:58:12;;;;;;;5.68;4.65;;;;;;;;;;5079019;28;20039;-65
2023/06/19 04:00:38;;;;;;;5.45;3.90;;;;;;;;;;5075172;28;20036;-66
2023/06/19 04:03:03;;;;;;;6.68;4.78;;;;;;;;;;5062910;28;20040;-66
2023/06/19 04:05:28;;;;;;;7.18;4.78;;;;;;;;;;5073963;28;20044;-66
2023/06/19 04:07:54;;;;;;;5.88;5.03;;;;;;;;;;5078302;28;20032;-65
2023/06/19 04:10:19;;;;;;;8.70;5.40;;;;;;;;;;5076535;28;20058;-66
2023/06/19 04:12:46;;;;;;;7.85;5.38;;;;;;;;;;5074157;28;20071;-66
2023/06/19 04:15:11;;;;;;;6.70;4.82;;;;;;;;;;5074983;28;20032;-65
2023/06/19 04:17:36;;;;;;;5.22;4.32;;;;;;;;;;5050369;28;20086;-65
2023/06/19 04:20:10;;;;;;;4.57;4.10;;;;;;;;;;5080368;28;20032;-64
2023/06/19 04:22:37;;;;;;;6.00;5.07;;;;;;;;;;5055821;28;20036;-64
2023/06/19 04:25:02;;;;;;;5.15;3.80;;;;;;;;;;5080005;28;20040;-65
2023/06/19 04:27:27;;;;;;;6.13;4.18;;;;;;;;;;5073880;28;20043;-65
2023/06/19 04:29:53;;;;;;;6.00;5.13;;;;;;;;;;5068918;28;20446;-65
2023/06/19 04:32:18;;;;;;;6.90;5.38;;;;;;;;;;5073484;28;20048;-65
2023/06/19 04:34:45;;;;;;;12.38;5.82;;;;;;;;;;5069890;28;20024;-65
2023/06/19 04:37:11;;;;;;;8.68;5.50;;;;;;;;;;5075269;28;20036;-65
2023/06/19 04:39:36;;;;;;;6.63;5.32;;;;;;;;;;5079493;28;20046;-65
2023/06/19 04:42:02;;;;;;;6.13;4.95;;;;;;;;;;5079622;28;20044;-65
2023/06/19 04:44:29;;;;;;;6.00;4.95;;;;;;;;;;5063362;28;20063;-65
2023/06/19 04:47:01;;;;;;;5.70;4.93;;;;;;;;;;5073982;28;20479;-66
2023/06/19 04:49:32;;;;;;;5.38;4.80;;;;;;;;;;5072457;28;20075;-66
2023/06/19 04:51:58;;;;;;;9.13;4.07;;;;;;;;;;5078274;28;20097;-67
2023/06/19 04:54:25;;;;;;;5.60;4.32;;;;;;;;;;5078849;28;20044;-65
2023/06/19 04:56:51;;;;;;;6.43;3.85;;;;;;;;;;5063762;28;20036;-65
2023/06/19 04:59:18;;;;;;;5.28;4.30;;;;;;;;;;5078478;28;20487;-65
2023/06/19 05:01:43;;;;;;;5.45;4.38;;;;;;;;;;5077460;28;20044;-66
2023/06/19 05:04:10;;;;;;;7.82;5.82;;;;;;;;;;5075763;28;20032;-66
2023/06/19 05:06:36;;;;;;;9.63;4.78;;;;;;;;;;5074730;28;20036;-67
2023/06/19 05:09:01;;;;;;;7.80;6.07;;;;;;;;;;5072841;28;20048;-65
2023/06/19 05:11:27;;;;;;;9.23;6.32;;;;;;;;;;5062805;28;20063;-65
2023/06/19 05:13:52;;;;;;;7.63;6.18;;;;;;;;;;5078731;28;20428;-65
2023/06/19 05:16:19;;;;;;;8.43;5.68;;;;;;;;;;5073076;28;20046;-65
2023/06/19 05:18:45;;;;;;;7.28;5.72;;;;;;;;;;5076601;28;20178;-64
2023/06/19 05:21:10;;;;;;;8.50;5.72;;;;;;;;;;5069134;28;20123;-64
2023/06/19 05:23:35;;;;;;;7.80;5.75;;;;;;;;;;5071288;28;20094;-65
2023/06/19 05:26:01;;;;;;;6.85;5.13;;;;;;;;;;5066494;28;20047;-66
2023/06/19 05:28:26;;;;;;;7.55;5.38;;;;;;;;;;5069697;28;20123;-65
2023/06/19 05:30:52;;;;;;;5.57;4.90;;;;;;;;;;5064939;28;20052;-66
2023/06/19 05:33:17;;;;;;;5.95;4.95;;;;;;;;;;5078404;28;20040;-67
2023/06/19 05:35:52;;;;;;;6.43;4.80;;;;;;;;;;5072162;28;20028;-67
2023/06/19 05:38:17;;;;;;;7.07;5.78;;;;;;;;;;5083780;28;20032;-66
2023/06/19 05:40:42;;;;;;;6.63;5.38;;;;;;;;;;5062723;28;20378;-66
2023/06/19 05:43:08;;;;;;;7.63;5.55;;;;;;;;;;5072723;28;20078;-65
2023/06/19 05:45:33;;;;;;;6.68;5.22;;;;;;;;;;5073233;28;20630;-66
2023/06/19 05:47:59;;;;;;;7.85;5.95;;;;;;;;;;5080232;28;20040;-65
2023/06/19 05:50:24;;;;;;;6.22;5.63;;;;;;;;;;5065237;28;20048;-66
2023/06/19 05:52:49;;;;;;;8.77;5.72;;;;;;;;;;5069992;28;20063;-66
2023/06/19 05:55:15;;;;;;;9.40;5.53;;;;;;;;;;5062065;28;20046;-66
2023/06/19 05:57:40;;;;;;;8.43;5.70;;;;;;;;;;5073872;28;20496;-65
2023/06/19 06:00:10;;;;;;;9.02;6.30;;;;;;;;;;5079458;28;20132;-65
2023/06/19 06:02:36;;;;;;;6.97;5.47;;;;;;;;;;5072996;28;20524;-64
2023/06/19 06:05:01;;;;;;;7.43;5.75;;;;;;;;;;5073329;28;20061;-67
2023/06/19 06:07:28;;;;;;;9.27;5.90;;;;;;;;;;5078105;28;20049;-65
2023/06/19 06:09:54;;;;;;;7.97;5.45;;;;;;;;;;5074444;28;20056;-67
2023/06/19 06:12:19;;;;;;;7.43;5.55;;;;;;;;;;5073489;28;20055;-65
2023/06/19 06:14:44;;;;;;;7.35;5.68;;;;;;;;;;5073828;28;20122;-65
2023/06/19 06:17:10;;;;;;;7.70;5.15;;;;;;;;;;5070297;28;20933;-66
2023/06/19 06:19:36;;;;;;;6.55;5.28;;;;;;;;;;5069657;28;20101;-65
2023/06/19 06:22:02;;;;;;;7.10;5.82;;;;;;;;;;5078564;28;20539;-65
2023/06/19 06:24:28;;;;;;;6.03;5.43;;;;;;;;;;5061870;28;20028;-65
2023/06/19 06:26:53;;;;;;;6.30;4.85;;;;;;;;;;5086045;28;20043;-66
2023/06/19 06:29:19;;;;;;;6.07;5.00;;;;;;;;;;5071319;28;20096;-65
2023/06/19 06:31:46;;;;;;;6.88;5.22;;;;;;;;;;5075226;28;20131;-65
2023/06/19 06:34:12;;;;;;;6.53;4.78;;;;;;;;;;5069306;28;20054;-65
2023/06/19 06:36:38;;;;;;;9.48;5.43;;;;;;;;;;5070586;28;20028;-67
2023/06/19 06:39:03;;;;;;;6.47;4.93;;;;;;;;;;5058887;28;20041;-65
2023/06/19 06:41:29;;;;;;;6.03;4.70;;;;;;;;;;5080158;28;20051;-66
2023/06/19 06:43:55;;;;;;;5.50;4.65;;;;;;;;;;5076718;28;20062;-66
2023/06/19 06:46:20;;;;;;;6.75;5.25;;;;;;;;;;5072023;28;20143;-66
2023/06/19 06:48:46;;;;;;;6.30;4.85;;;;;;;;;;5070292;28;20075;-66
2023/06/19 06:51:11;;;;;;;7.20;5.93;;;;;;;;;;5073766;28;20086;-65
2023/06/19 06:53:37;;;;;;;6.68;5.10;;;;;;;;;;5058713;28;20075;-67
2023/06/19 06:56:02;;;;;;;10.40;6.47;;;;;;;;;;5072505;28;20048;-65
2023/06/19 06:58:28;;;;;;;7.93;5.68;;;;;;;;;;5072375;28;20031;-66
2023/06/19 07:00:55;;;;;;;8.23;5.80;;;;;;;;;;5065577;28;20047;-66
2023/06/19 07:03:21;;;;;;;9.13;6.03;;;;;;;;;;5068520;28;20095;-65
2023/06/19 07:05:48;;;;;;;7.95;6.45;;;;;;;;;;5061796;28;20500;-66
2023/06/19 07:08:13;;;;;;;9.18;5.88;;;;;;;;;;5055353;28;20033;-66
2023/06/19 07:10:39;;;;;;;7.53;6.07;;;;;;;;;;5070871;28;20523;-66
2023/06/19 07:13:04;;;;;;;6.35;5.60;;;;;;;;;;5054877;28;20062;-65
2023/06/19 07:15:29;;;;;;;7.82;6.18;;;;;;;;;;5069207;28;20051;-65
2023/06/19 07:17:56;;;;;;;7.95;5.90;;;;;;;;;;5075512;28;20047;-65
2023/06/19 07:20:21;;;;;;;8.50;7.10;;;;;;;;;;5065378;28;20122;-67
2023/06/19 07:22:47;;;;;;;8.40;5.72;;;;;;;;;;5076229;28;20135;-65
2023/06/19 07:25:12;;;;;;;6.82;5.95;;;;;;;;;;5068749;28;20040;-66
2023/06/19 07:27:40;;;;;;;8.00;5.90;;;;;;;;;;5070618;28;20040;-67
2023/06/19 07:30:06;;;;;;;9.88;6.30;;;;;;;;;;5079060;28;20089;-66
2023/06/19 07:32:32;;;;;;;9.18;6.35;;;;;;;;;;5070807;28;20115;-66
2023/06/19 07:34:58;;;;;;;7.82;5.68;;;;;;;;;;5065718;28;20134;-65
2023/06/19 07:37:23;;;;;;;8.40;6.07;;;;;;;;;;5074387;28;20423;-66
2023/06/19 07:39:50;;;;;;;7.35;5.90;;;;;;;;;;5078409;28;20040;-67
2023/06/19 07:42:16;;;;;;;7.63;6.70;;;;;;;;;;5076129;28;20065;-67
2023/06/19 07:44:43;;;;;;;7.28;6.38;;;;;;;;;;5075684;28;20055;-66
2023/06/19 07:47:09;;;;;;;7.65;6.50;;;;;;;;;;5072053;28;20028;-66
2023/06/19 07:49:35;;;;;;;8.93;5.95;;;;;;;;;;5042427;28;20034;-65
2023/06/19 07:52:00;;;;;;;7.90;5.90;;;;;;;;;;5078351;28;20035;-66
2023/06/19 07:54:26;;;;;;;7.85;6.05;;;;;;;;;;5070474;28;20299;-66
2023/06/19 07:56:52;;;;;;;8.27;6.35;;;;;;;;;;5076153;28;20066;-65
2023/06/19 07:59:17;;;;;;;7.03;6.32;;;;;;;;;;5074881;28;20109;-64
2023/06/19 08:01:43;;;;;;;8.80;6.15;;;;;;;;;;5068302;28;20044;-66
2023/06/19 08:04:08;;;;;;;8.45;6.45;;;;;;;;;;5073464;28;20028;-66
2023/06/19 08:06:34;;;;;;;7.88;6.13;;;;;;;;;;5074673;28;20047;-65
2023/06/19 08:08:59;;;;;;;9.10;6.28;;;;;;;;;;5065714;28;20119;-66
2023/06/19 08:11:25;;;;;;;8.32;6.00;;;;;;;;;;5068361;28;20134;-65
2023/06/19 08:13:50;;;;;;;9.43;6.93;;;;;;;;;;5076471;28;20044;-66
2023/06/19 08:16:15;;;;;;;7.28;5.50;;;;;;;;;;5066869;28;20520;-66
2023/06/19 08:18:42;;;;;;;8.48;6.70;;;;;;;;;;5074356;28;20097;-66
2023/06/19 08:21:07;;;;;;;8.18;5.95;;;;;;;;;;5073733;28;20472;-65
2023/06/19 08:23:33;;;;;;;7.53;6.28;;;;;;;;;;5078551;28;20122;-65
2023/06/19 08:25:58;;;;;;;8.63;6.57;;;;;;;;;;5078906;28;20039;-67
2023/06/19 08:28:23;;;;;;;8.70;6.65;;;;;;;;;;5080354;28;20047;-67
2023/06/19 08:30:49;;;;;;;8.55;6.60;;;;;;;;;;5062571;28;20081;-66
2023/06/19 08:33:14;;;;;;;7.55;5.97;;;;;;;;;;5075277;28;20050;-66
2023/06/19 08:35:40;;;;;;;7.95;6.53;;;;;;;;;;5076372;28;20128;-65
2023/06/19 08:38:05;;;;;;;7.50;5.80;;;;;;;;;;5074517;28;20059;-67
2023/06/19 08:40:31;;;;;;;3.50;2.90;;;;;;;;;;5074371;28;20124;-65
2023/06/19 08:42:56;;;;;;;7.40;5.15;;;;;;;;;;5073058;28;20131;-65
2023/06/19 08:45:22;;;;;;;9.02;6.05;;;;;;;;;;5066393;28;20071;-65
2023/06/19 08:47:48;;;;;;;7.07;6.35;;;;;;;;;;5077967;28;20039;-65
2023/06/19 08:50:15;;;;;;;3.80;2.92;;;;;;;;;;5079421;28;20050;-65
2023/06/19 08:52:40;;;;;;;5.35;3.72;;;;;;;;;;5073260;28;20072;-67
2023/06/19 08:55:06;;;;;;;6.50;5.80;;;;;;;;;;5073885;28;20060;-72
2023/06/19 08:57:39;;;;;;;8.07;6.68;;;;;;;;;;5078643;28;20101;-72
2023/06/19 09:00:10;;;;;;;6.32;5.53;;;;;;;;;;5053461;28;20045;-72
2023/06/19 09:02:43;;;;;;;7.82;6.25;;;;;;;;;;5071528;28;20105;-71
2023/06/19 09:05:18;;;;;;;7.80;6.40;;;;;;;;;;5074363;28;20036;-72
2023/06/19 09:07:53;;;;;;;7.93;6.38;;;;;;;;;;5076206;28;20039;-73
2023/06/19 09:10:19;;;;;;;9.30;6.95;;;;;;;;;;5063848;28;20126;-72
2023/06/19 09:13:04;;;;;;;8.48;5.78;;;;;;;;;;5073535;28;20032;-72
2023/06/19 09:15:32;;;;;;;6.45;5.85;;;;;;;;;;5081048;28;20067;-72
2023/06/19 09:18:04;;;;;;;7.47;6.40;;;;;;;;;;5073183;28;20048;-72
2023/06/19 09:20:30;;;;;;;6.72;5.85;;;;;;;;;;5059347;28;20408;-72
2023/06/19 09:22:56;;;;;;;7.07;5.93;;;;;;;;;;5073192;28;20039;-72
2023/06/19 09:25:23;;;;;;;7.85;5.07;;;;;;;;;;5077264;28;20492;-72
2023/06/19 09:27:49;;;;;;;7.65;6.22;;;;;;;;;;5086232;28;20040;-72
2023/06/19 09:30:17;;;;;;;5.93;5.15;;;;;;;;;;5074365;28;20036;-73
2023/06/19 09:32:42;;;;;;;6.72;5.03;;;;;;;;;;5073096;28;20040;-72
2023/06/19 09:35:08;;;;;;;5.53;4.90;;;;;;;;;;5062494;28;20519;-72
2023/06/19 09:37:33;;;;;;;8.85;6.28;;;;;;;;;;5080408;28;20059;-72
2023/06/19 09:40:01;;;;;;;6.60;5.90;;;;;;;;;;5075055;28;20044;-72
2023/06/19 09:42:34;;;;;;;5.10;4.50;;;;;;;;;;5062049;28;20047;-72
2023/06/19 09:45:07;;;;;;;6.72;5.72;;;;;;;;;;5059358;28;20039;-72
2023/06/19 09:47:37;;;;;;;5.90;5.13;;;;;;;;;;5055815;28;20036;-72
2023/06/19 09:50:03;;;;;;;8.00;6.85;;;;;;;;;;5073066;28;20046;-72
2023/06/19 09:52:29;;;;;;;6.75;5.68;;;;;;;;;;5073201;28;20036;-72
2023/06/19 09:54:56;;;;;;;6.47;5.82;;;;;;;;;;5081322;28;20073;-72
2023/06/19 09:57:21;;;;;;;5.35;4.05;;;;;;;;;;5072876;28;20024;-72
2023/06/19 09:59:59;;;;;;;5.90;5.30;;;;;;;;;;5079634;28;20032;-72
2023/06/19 10:02:27;;;;;;;5.03;4.53;;;;;;;;;;5045921;28;20045;-72
2023/06/19 10:04:57;;;;;;;8.50;5.35;;;;;;;;;;5066021;28;20036;-72
2023/06/19 10:07:24;;;;;;;5.72;4.90;;;;;;;;;;5065022;28;20035;-73
2023/06/19 10:10:06;;;;;;;7.25;6.15;;;;;;;;;;5077307;28;20070;-73
2023/06/19 10:12:44;;;;;;;5.47;4.43;;;;;;;;;;5064566;28;20028;-73
2023/06/19 10:15:10;;;;;;;6.65;5.95;;;;;;;;;;5072455;28;20034;-73
2023/06/19 10:17:37;;;;;;;5.07;4.45;;;;;;;;;;5073643;28;20047;-72
2023/06/19 10:20:03;;;;;;;5.95;5.35;;;;;;;;;;5073261;28;20040;-72
2023/06/19 10:22:31;;;;;;;6.10;5.50;;;;;;;;;;5086273;28;20575;-72
2023/06/19 10:24:57;;;;;;;7.38;6.10;;;;;;;;;;5062356;28;20130;-72
2023/06/19 10:27:24;;;;;;;7.45;5.45;;;;;;;;;;5056553;28;20170;-72
2023/06/19 10:29:53;;;;;;;6.38;5.45;;;;;;;;;;5078606;28;20070;-72
2023/06/19 10:32:19;;;;;;;6.30;5.70;;;;;;;;;;5067389;28;21809;-71
2023/06/19 10:34:50;;;;;;;6.47;5.88;;;;;;;;;;5079273;28;20048;-71
2023/06/19 10:37:16;;;;;;;6.20;5.60;;;;;;;;;;5072194;28;20029;-72
2023/06/19 10:39:43;;;;;;;7.47;5.70;;;;;;;;;;5045445;28;20045;-71
2023/06/19 10:42:10;;;;;;;5.60;5.10;;;;;;;;;;5069077;28;20043;-72
2023/06/19 10:44:37;;;;;;;5.72;5.13;;;;;;;;;;5072493;28;20097;-72
2023/06/19 10:47:04;;;;;;;6.75;5.38;;;;;;;;;;5074483;28;20024;-72
2023/06/19 10:49:29;;;;;;;5.65;4.90;;;;;;;;;;5076908;28;20146;-73
2023/06/19 10:51:58;;;;;;;4.78;4.28;;;;;;;;;;5066141;28;20131;-72
2023/06/19 10:54:25;;;;;;;6.55;5.70;;;;;;;;;;5081253;28;20071;-72
2023/06/19 10:56:51;;;;;;;6.18;5.57;;;;;;;;;;5078366;28;20570;-72
2023/06/19 10:59:16;;;;;;;4.72;4.22;;;;;;;;;;5057894;28;20036;-72
2023/06/19 11:01:46;;;;;;;5.68;4.90;;;;;;;;;;5074025;28;20042;-72
2023/06/19 11:04:14;;;;;;;6.18;5.57;;;;;;;;;;5070504;28;20060;-72
2023/06/19 11:06:41;;;;;;;5.95;5.35;;;;;;;;;;5058584;28;20044;-72
2023/06/19 11:09:08;;;;;;;7.72;5.70;;;;;;;;;;5075801;28;20520;-69
2023/06/19 11:11:46;;;;;;;5.60;4.68;;;;;;;;;;5075789;28;20043;-78
2023/06/19 11:14:12;;;;;;;6.25;5.38;;;;;;;;;;5074665;28;20032;-70
2023/06/19 11:16:41;;;;;;;4.82;3.58;;;;;;;;;;5075513;28;20043;-67
2023/06/19 11:19:08;;;;;;;5.93;5.22;;;;;;;;;;5044528;28;20107;-67
2023/06/19 11:21:38;;;;;;;8.07;5.18;;;;;;;;;;5073594;28;20063;-67
2023/06/19 11:24:14;;;;;;;6.50;4.75;;;;;;;;;;5075969;28;20048;-67
2023/06/19 11:26:49;;;;;;;6.53;5.88;;;;;;;;;;5082495;28;20044;-67
2023/06/19 11:29:32;;;;;;;4.95;4.40;;;;;;;;;;5073845;28;20952;-67
2023/06/19 11:32:23;;;;;;;6.97;5.35;;;;;;;;;;5076141;28;20068;-67
2023/06/19 11:34:48;;;;;;;4.72;3.88;;;;;;;;;;5074892;28;20050;-67
2023/06/19 11:37:15;;;;;;;5.78;4.82;;;;;;;;;;5077081;28;20711;-67
2023/06/19 11:39:43;;;;;;;7.18;5.00;;;;;;;;;;5071542;28;20585;-67
2023/06/19 11:42:09;;;;;;;5.47;4.63;;;;;;;;;;5074674;28;20032;-67
2023/06/19 11:44:34;;;;;;;6.30;5.47;;;;;;;;;;5078340;28;20043;-67
2023/06/19 11:47:00;;;;;;;6.18;5.20;;;;;;;;;;5075670;28;20029;-67
2023/06/19 11:49:26;;;;;;;6.30;5.70;;;;;;;;;;5076547;28;20036;-66
2023/06/19 11:51:51;;;;;;;5.72;5.22;;;;;;;;;;5071447;28;20063;-67
2023/06/19 11:54:20;;;;;;;6.75;6.03;;;;;;;;;;5065653;28;20508;-67
2023/06/19 11:56:47;;;;;;;5.50;4.82;;;;;;;;;;5075738;28;20117;-67
2023/06/19 11:59:14;;;;;;;6.65;4.40;;;;;;;;;;5072042;28;20024;-67
2023/06/19 12:01:39;;;;;;;5.85;4.97;;;;;;;;;;5070914;28;20105;-68
2023/06/19 12:04:05;;;;;;;5.43;4.93;;;;;;;;;;5078148;28;20107;-67
2023/06/19 12:06:31;;;;;;;6.20;5.38;;;;;;;;;;5072516;28;20057;-67
2023/06/19 12:08:56;;;;;;;5.47;4.97;;;;;;;;;;5079453;28;20623;-66
2023/06/19 12:11:22;;;;;;;6.13;5.05;;;;;;;;;;5072957;28;20119;-67
2023/06/19 12:13:48;;;;;;;6.15;4.65;;;;;;;;;;5078546;28;20032;-67
2023/06/19 12:16:14;;;;;;;7.47;4.82;;;;;;;;;;5081799;28;20404;-67
2023/06/19 12:18:39;;;;;;;4.53;4.05;;;;;;;;;;5079577;28;20032;-67
2023/06/19 12:21:05;;;;;;;5.13;4.57;;;;;;;;;;5060515;28;20415;-66
2023/06/19 12:23:31;;;;;;;4.68;4.18;;;;;;;;;;5072597;28;20548;-66
2023/06/19 12:25:57;;;;;;;4.90;4.40;;;;;;;;;;5081490;28;20131;-66
2023/06/19 12:28:23;;;;;;;5.95;4.70;;;;;;;;;;5084995;28;20024;-67
2023/06/19 12:30:51;;;;;;;4.65;4.22;;;;;;;;;;5080578;28;20101;-67
2023/06/19 12:33:18;;;;;;;4.90;4.22;;;;;;;;;;5074696;28;20557;-67
2023/06/19 12:35:44;;;;;;;4.63;4.13;;;;;;;;;;5062792;28;20037;-67
2023/06/19 12:38:10;;;;;;;4.43;3.90;;;;;;;;;;5083175;28;20063;-67
2023/06/19 12:40:37;;;;;;;5.68;4.47;;;;;;;;;;5083361;28;20573;-67
2023/06/19 12:43:02;;;;;;;5.72;4.68;;;;;;;;;;5078509;28;20048;-67
2023/06/19 12:45:28;;;;;;;5.75;4.72;;;;;;;;;;5071762;28;20062;-69
2023/06/19 12:47:53;;;;;;;5.57;4.22;;;;;;;;;;5071756;28;20871;-67
2023/06/19 12:50:19;;;;;;;5.60;4.65;;;;;;;;;;5085178;28;20040;-68
2023/06/19 12:52:44;;;;;;;5.50;4.85;;;;;;;;;;5083916;28;20581;-69
2023/06/19 12:55:09;;;;;;;5.88;4.72;;;;;;;;;;5074934;28;20071;-68
2023/06/19 12:57:35;;;;;;;5.07;4.28;;;;;;;;;;5078443;28;20492;-68
2023/06/19 13:00:00;;;;;;;7.65;4.22;;;;;;;;;;5079782;28;20036;-67
2023/06/19 13:02:25;;;;;;;4.88;4.28;;;;;;;;;;5069111;28;20158;-69
2023/06/19 13:04:52;;;;;;;4.30;3.40;;;;;;;;;;5080254;28;20036;-66
2023/06/19 13:07:17;;;;;;;6.55;4.50;;;;;;;;;;5072408;28;20040;-66
2023/06/19 13:09:43;;;;;;;6.63;4.15;;;;;;;;;;5074444;28;20160;-66
2023/06/19 13:12:08;;;;;;;4.18;3.72;;;;;;;;;;5074816;28;20044;-67
2023/06/19 13:14:34;;;;;;;3.15;2.78;;;;;;;;;;5074474;28;20122;-67
2023/06/19 13:16:59;;;;;;;4.57;4.15;;;;;;;;;;5063260;28;20028;-68
2023/06/19 13:19:25;;;;;;;5.30;4.20;;;;;;;;;;5075424;28;20480;-67
2023/06/19 13:21:51;;;;;;;5.10;3.85;;;;;;;;;;5076661;28;20077;-67
2023/06/19 13:24:17;;;;;;;5.63;4.38;;;;;;;;;;5059815;28;20069;-67
2023/06/19 13:26:43;;;;;;;4.28;3.85;;;;;;;;;;5075455;28;20126;-66
2023/06/19 13:29:09;;;;;;;4.35;3.95;;;;;;;;;;5065590;28;20429;-66
2023/06/19 13:31:34;;;;;;;4.22;3.80;;;;;;;;;;5063734;28;20047;-67
2023/06/19 13:33:59;;;;;;;5.40;4.10;;;;;;;;;;5070260;28;20110;-67
2023/06/19 13:36:26;;;;;;;5.15;3.30;;;;;;;;;;5072592;28;20777;-66
2023/06/19 13:38:52;;;;;;;4.82;4.10;;;;;;;;;;5075450;28;20040;-66
2023/06/19 13:41:17;;;;;;;4.07;3.67;;;;;;;;;;5072468;28;20089;-66
2023/06/19 13:43:45;;;;;;;4.60;3.50;;;;;;;;;;5068491;28;20119;-66
2023/06/19 13:46:11;;;;;;;4.15;3.45;;;;;;;;;;5064839;28;20681;-68
2023/06/19 13:48:36;;;;;;;6.65;3.60;;;;;;;;;;5075098;28;20064;-67
2023/06/19 13:51:01;;;;;;;3.72;3.28;;;;;;;;;;5072665;28;20124;-67
2023/06/19 13:53:28;;;;;;;4.22;3.83;;;;;;;;;;5075714;28;20365;-67
2023/06/19 13:55:54;;;;;;;5.32;3.88;;;;;;;;;;5053224;28;20052;-68
2023/06/19 13:58:19;;;;;;;4.70;3.88;;;;;;;;;;5068459;28;20114;-68
2023/06/19 14:00:44;;;;;;;6.38;3.75;;;;;;;;;;5061833;28;20123;-70
2023/06/19 14:03:10;;;;;;;4.68;3.50;;;;;;;;;;5072013;28;20475;-68
2023/06/19 14:05:36;;;;;;;3.75;3.17;;;;;;;;;;5077822;28;20119;-67
2023/06/19 14:08:03;;;;;;;6.00;3.95;;;;;;;;;;5079245;28;20036;-67
2023/06/19 14:10:28;;;;;;;4.07;3.67;;;;;;;;;;5078022;28;20055;-67
2023/06/19 14:12:54;;;;;;;3.95;3.50;;;;;;;;;;5061173;28;20044;-67
2023/06/19 14:15:19;;;;;;;4.88;3.83;;;;;;;;;;5070181;28;20242;-67
2023/06/19 14:17:44;;;;;;;4.05;3.40;;;;;;;;;;5071489;28;20039;-67
2023/06/19 14:20:11;;;;;;;4.43;3.70;;;;;;;;;;5076744;28;20063;-67
2023/06/19 14:22:36;;;;;;;4.32;3.92;;;;;;;;;;5074124;28;20039;-67
2023/06/19 14:25:01;;;;;;;4.85;3.60;;;;;;;;;;5073747;28;20040;-67
2023/06/19 14:27:28;;;;;;;3.65;3.13;;;;;;;;;;5055874;28;20041;-67
2023/06/19 14:29:55;;;;;;;3.80;3.38;;;;;;;;;;5081490;28;20047;-67
2023/06/19 14:32:22;;;;;;;5.05;3.60;;;;;;;;;;5075944;28;20433;-67
2023/06/19 14:34:47;;;;;;;3.90;3.50;;;;;;;;;;5071096;28;20068;-67
2023/06/19 14:37:12;;;;;;;3.58;2.78;;;;;;;;;;5079961;28;20509;-67
2023/06/19 14:39:38;;;;;;;4.68;3.30;;;;;;;;;;5083872;28;20123;-66